sensor_id;sensor_type;location;lat;lon;timestamp;P1;durP1;ratioP1;P2;durP2;ratioP2
9563;SDS011;4820;50.870;4.702;2024-03-02T00:00:26;0.68;;;0.68;;
9563;SDS011;4820;50.870;4.702;2024-03-02T00:02:52;1.25;;;1.02;;
9563;SDS011;4820;50.870;4.702;2024-03-02T00:05:18;1.05;;;0.85;;
9563;SDS011;4820;50.870;4.702;2024-03-02T00:07:46;0.60;;;0.50;;
9563;SDS011;4820;50.870;4.702;2024-03-02T00:10:20;1.00;;;0.70;;
9563;SDS011;4820;50.870;4.702;2024-03-02T00:12:50;0.60;;;0.52;;
9563;SDS011;4820;50.870;4.702;2024-03-02T00:18:12;0.60;;;0.50;;
9563;SDS011;4820;50.870;4.702;2024-03-02T00:20:39;1.50;;;0.90;;
9563;SDS011;4820;50.870;4.702;2024-03-02T00:23:07;1.67;;;1.10;;
9563;SDS011;4820;50.870;4.702;2024-03-02T00:25:42;1.40;;;1.20;;
9563;SDS011;4820;50.870;4.702;2024-03-02T00:28:19;1.65;;;0.85;;
9563;SDS011;4820;50.870;4.702;2024-03-02T00:33:23;0.50;;;0.47;;
9563;SDS011;4820;50.870;4.702;2024-03-02T00:35:51;1.48;;;0.70;;
9563;SDS011;4820;50.870;4.702;2024-03-02T00:38:17;0.60;;;0.60;;
9563;SDS011;4820;50.870;4.702;2024-03-02T00:40:43;1.52;;;0.70;;
9563;SDS011;4820;50.870;4.702;2024-03-02T00:45:56;1.77;;;0.77;;
9563;SDS011;4820;50.870;4.702;2024-03-02T00:48:22;1.05;;;0.60;;
9563;SDS011;4820;50.870;4.702;2024-03-02T00:50:50;1.65;;;0.90;;
9563;SDS011;4820;50.870;4.702;2024-03-02T00:53:17;1.60;;;0.85;;
9563;SDS011;4820;50.870;4.702;2024-03-02T00:55:48;0.95;;;0.80;;
9563;SDS011;4820;50.870;4.702;2024-03-02T00:58:14;1.33;;;0.90;;
9563;SDS011;4820;50.870;4.702;2024-03-02T01:00:40;1.33;;;0.85;;
9563;SDS011;4820;50.870;4.702;2024-03-02T01:03:05;0.65;;;0.63;;
9563;SDS011;4820;50.870;4.702;2024-03-02T01:05:32;1.15;;;0.80;;
9563;SDS011;4820;50.870;4.702;2024-03-02T01:08:00;0.93;;;0.80;;
9563;SDS011;4820;50.870;4.702;2024-03-02T01:10:26;1.00;;;0.73;;
9563;SDS011;4820;50.870;4.702;2024-03-02T01:12:52;1.10;;;0.70;;
9563;SDS011;4820;50.870;4.702;2024-03-02T01:15:18;1.13;;;0.55;;
9563;SDS011;4820;50.870;4.702;2024-03-02T01:17:44;1.85;;;0.60;;
9563;SDS011;4820;50.870;4.702;2024-03-02T01:20:10;1.92;;;0.88;;
9563;SDS011;4820;50.870;4.702;2024-03-02T01:22:37;0.88;;;0.60;;
9563;SDS011;4820;50.870;4.702;2024-03-02T01:25:03;0.60;;;0.55;;
9563;SDS011;4820;50.870;4.702;2024-03-02T01:27:29;0.50;;;0.50;;
9563;SDS011;4820;50.870;4.702;2024-03-02T01:29:55;0.95;;;0.60;;
9563;SDS011;4820;50.870;4.702;2024-03-02T01:32:20;1.35;;;0.60;;
9563;SDS011;4820;50.870;4.702;2024-03-02T01:34:46;0.98;;;0.60;;
9563;SDS011;4820;50.870;4.702;2024-03-02T01:37:12;0.80;;;0.70;;
9563;SDS011;4820;50.870;4.702;2024-03-02T01:39:37;0.80;;;0.40;;
9563;SDS011;4820;50.870;4.702;2024-03-02T01:42:03;1.08;;;0.40;;
9563;SDS011;4820;50.870;4.702;2024-03-02T01:44:29;1.20;;;0.85;;
9563;SDS011;4820;50.870;4.702;2024-03-02T01:46:55;1.45;;;0.50;;
9563;SDS011;4820;50.870;4.702;2024-03-02T01:49:21;1.67;;;1.00;;
9563;SDS011;4820;50.870;4.702;2024-03-02T01:51:46;1.05;;;0.60;;
9563;SDS011;4820;50.870;4.702;2024-03-02T01:54:12;0.30;;;0.30;;
9563;SDS011;4820;50.870;4.702;2024-03-02T01:56:38;0.90;;;0.60;;
9563;SDS011;4820;50.870;4.702;2024-03-02T01:59:04;2.42;;;0.60;;
9563;SDS011;4820;50.870;4.702;2024-03-02T02:01:30;1.15;;;0.43;;
9563;SDS011;4820;50.870;4.702;2024-03-02T02:03:56;1.27;;;0.60;;
9563;SDS011;4820;50.870;4.702;2024-03-02T02:06:22;0.90;;;0.52;;
9563;SDS011;4820;50.870;4.702;2024-03-02T02:08:47;1.10;;;0.70;;
9563;SDS011;4820;50.870;4.702;2024-03-02T02:11:16;1.45;;;0.80;;
9563;SDS011;4820;50.870;4.702;2024-03-02T02:13:42;1.75;;;0.85;;
9563;SDS011;4820;50.870;4.702;2024-03-02T02:16:08;2.47;;;0.80;;
9563;SDS011;4820;50.870;4.702;2024-03-02T02:18:34;0.93;;;0.65;;
9563;SDS011;4820;50.870;4.702;2024-03-02T02:21:01;0.93;;;0.70;;
9563;SDS011;4820;50.870;4.702;2024-03-02T02:23:27;0.73;;;0.50;;
9563;SDS011;4820;50.870;4.702;2024-03-02T02:25:53;1.00;;;0.60;;
9563;SDS011;4820;50.870;4.702;2024-03-02T02:28:19;1.33;;;0.80;;
9563;SDS011;4820;50.870;4.702;2024-03-02T02:30:45;0.85;;;0.52;;
9563;SDS011;4820;50.870;4.702;2024-03-02T02:33:11;0.30;;;0.30;;
9563;SDS011;4820;50.870;4.702;2024-03-02T02:35:36;1.48;;;0.73;;
9563;SDS011;4820;50.870;4.702;2024-03-02T02:38:02;1.08;;;0.63;;
9563;SDS011;4820;50.870;4.702;2024-03-02T02:40:29;1.38;;;0.65;;
9563;SDS011;4820;50.870;4.702;2024-03-02T02:42:56;0.85;;;0.55;;
9563;SDS011;4820;50.870;4.702;2024-03-02T02:45:22;0.43;;;0.43;;
9563;SDS011;4820;50.870;4.702;2024-03-02T02:47:47;1.40;;;0.65;;
9563;SDS011;4820;50.870;4.702;2024-03-02T02:50:13;0.93;;;0.60;;
9563;SDS011;4820;50.870;4.702;2024-03-02T02:52:40;1.15;;;0.75;;
9563;SDS011;4820;50.870;4.702;2024-03-02T02:55:07;1.20;;;0.68;;
9563;SDS011;4820;50.870;4.702;2024-03-02T02:57:37;2.55;;;0.80;;
9563;SDS011;4820;50.870;4.702;2024-03-02T03:00:13;1.35;;;0.85;;
9563;SDS011;4820;50.870;4.702;2024-03-02T03:02:40;2.88;;;0.70;;
9563;SDS011;4820;50.870;4.702;2024-03-02T03:05:11;0.68;;;0.52;;
9563;SDS011;4820;50.870;4.702;2024-03-02T03:07:39;1.27;;;0.70;;
9563;SDS011;4820;50.870;4.702;2024-03-02T03:10:05;1.13;;;0.60;;
9563;SDS011;4820;50.870;4.702;2024-03-02T03:12:32;1.45;;;0.70;;
9563;SDS011;4820;50.870;4.702;2024-03-02T03:14:58;1.83;;;0.75;;
9563;SDS011;4820;50.870;4.702;2024-03-02T03:17:24;2.08;;;1.10;;
9563;SDS011;4820;50.870;4.702;2024-03-02T03:19:50;1.05;;;0.70;;
9563;SDS011;4820;50.870;4.702;2024-03-02T03:22:16;2.20;;;0.98;;
9563;SDS011;4820;50.870;4.702;2024-03-02T03:24:42;1.48;;;0.80;;
9563;SDS011;4820;50.870;4.702;2024-03-02T03:27:08;1.40;;;0.65;;
9563;SDS011;4820;50.870;4.702;2024-03-02T03:29:35;1.52;;;0.82;;
9563;SDS011;4820;50.870;4.702;2024-03-02T03:32:01;2.22;;;0.95;;
9563;SDS011;4820;50.870;4.702;2024-03-02T03:34:27;4.00;;;1.10;;
9563;SDS011;4820;50.870;4.702;2024-03-02T03:36:54;2.88;;;0.80;;
9563;SDS011;4820;50.870;4.702;2024-03-02T03:39:19;1.88;;;0.90;;
9563;SDS011;4820;50.870;4.702;2024-03-02T03:41:45;2.00;;;0.65;;
9563;SDS011;4820;50.870;4.702;2024-03-02T03:44:11;0.85;;;0.80;;
9563;SDS011;4820;50.870;4.702;2024-03-02T03:46:36;1.95;;;0.93;;
9563;SDS011;4820;50.870;4.702;2024-03-02T03:49:02;2.65;;;0.90;;
9563;SDS011;4820;50.870;4.702;2024-03-02T03:51:28;0.82;;;0.57;;
9563;SDS011;4820;50.870;4.702;2024-03-02T03:53:55;1.67;;;0.90;;
9563;SDS011;4820;50.870;4.702;2024-03-02T03:56:21;3.65;;;1.13;;
9563;SDS011;4820;50.870;4.702;2024-03-02T03:58:46;2.65;;;0.90;;
9563;SDS011;4820;50.870;4.702;2024-03-02T04:01:12;2.25;;;1.00;;
9563;SDS011;4820;50.870;4.702;2024-03-02T04:03:38;1.55;;;0.65;;
9563;SDS011;4820;50.870;4.702;2024-03-02T04:06:03;1.08;;;0.60;;
9563;SDS011;4820;50.870;4.702;2024-03-02T04:08:29;2.55;;;1.05;;
9563;SDS011;4820;50.870;4.702;2024-03-02T04:10:55;1.73;;;0.80;;
9563;SDS011;4820;50.870;4.702;2024-03-02T04:13:21;0.90;;;0.52;;
9563;SDS011;4820;50.870;4.702;2024-03-02T04:15:46;1.48;;;0.60;;
9563;SDS011;4820;50.870;4.702;2024-03-02T04:18:12;1.63;;;0.70;;
9563;SDS011;4820;50.870;4.702;2024-03-02T04:20:38;2.17;;;1.00;;
9563;SDS011;4820;50.870;4.702;2024-03-02T04:23:03;0.68;;;0.50;;
9563;SDS011;4820;50.870;4.702;2024-03-02T04:25:29;1.20;;;0.90;;
9563;SDS011;4820;50.870;4.702;2024-03-02T04:27:55;1.10;;;0.57;;
9563;SDS011;4820;50.870;4.702;2024-03-02T04:30:20;2.10;;;0.90;;
9563;SDS011;4820;50.870;4.702;2024-03-02T04:32:46;2.40;;;0.80;;
9563;SDS011;4820;50.870;4.702;2024-03-02T04:35:12;1.45;;;0.70;;
9563;SDS011;4820;50.870;4.702;2024-03-02T04:37:38;2.35;;;0.98;;
9563;SDS011;4820;50.870;4.702;2024-03-02T04:40:04;2.92;;;0.98;;
9563;SDS011;4820;50.870;4.702;2024-03-02T04:42:33;2.55;;;0.93;;
9563;SDS011;4820;50.870;4.702;2024-03-02T04:44:59;2.63;;;0.90;;
9563;SDS011;4820;50.870;4.702;2024-03-02T04:47:24;1.40;;;0.90;;
9563;SDS011;4820;50.870;4.702;2024-03-02T04:49:50;1.63;;;0.70;;
9563;SDS011;4820;50.870;4.702;2024-03-02T04:52:16;2.08;;;1.10;;
9563;SDS011;4820;50.870;4.702;2024-03-02T04:54:42;1.92;;;0.90;;
9563;SDS011;4820;50.870;4.702;2024-03-02T04:57:43;1.60;;;0.80;;
9563;SDS011;4820;50.870;4.702;2024-03-02T05:00:09;3.45;;;0.93;;
9563;SDS011;4820;50.870;4.702;2024-03-02T05:02:36;3.35;;;0.93;;
9563;SDS011;4820;50.870;4.702;2024-03-02T05:05:01;1.75;;;0.95;;
9563;SDS011;4820;50.870;4.702;2024-03-02T05:07:28;2.38;;;0.90;;
9563;SDS011;4820;50.870;4.702;2024-03-02T05:09:53;1.88;;;1.08;;
9563;SDS011;4820;50.870;4.702;2024-03-02T05:12:19;2.13;;;0.90;;
9563;SDS011;4820;50.870;4.702;2024-03-02T05:15:03;1.90;;;0.93;;
9563;SDS011;4820;50.870;4.702;2024-03-02T05:17:29;2.42;;;0.95;;
9563;SDS011;4820;50.870;4.702;2024-03-02T05:19:55;2.50;;;0.90;;
9563;SDS011;4820;50.870;4.702;2024-03-02T05:22:20;1.58;;;0.75;;
9563;SDS011;4820;50.870;4.702;2024-03-02T05:24:46;2.53;;;0.90;;
9563;SDS011;4820;50.870;4.702;2024-03-02T05:27:12;2.78;;;0.60;;
9563;SDS011;4820;50.870;4.702;2024-03-02T05:29:37;2.42;;;1.20;;
9563;SDS011;4820;50.870;4.702;2024-03-02T05:32:03;2.85;;;0.95;;
9563;SDS011;4820;50.870;4.702;2024-03-02T05:34:29;1.98;;;0.85;;
9563;SDS011;4820;50.870;4.702;2024-03-02T05:36:55;2.08;;;0.90;;
9563;SDS011;4820;50.870;4.702;2024-03-02T05:39:22;2.28;;;1.02;;
9563;SDS011;4820;50.870;4.702;2024-03-02T05:41:48;1.80;;;0.95;;
9563;SDS011;4820;50.870;4.702;2024-03-02T05:44:14;3.33;;;1.02;;
9563;SDS011;4820;50.870;4.702;2024-03-02T05:46:40;2.58;;;1.30;;
9563;SDS011;4820;50.870;4.702;2024-03-02T05:49:07;2.75;;;1.08;;
9563;SDS011;4820;50.870;4.702;2024-03-02T05:51:33;1.50;;;0.95;;
9563;SDS011;4820;50.870;4.702;2024-03-02T05:53:58;2.15;;;1.00;;
9563;SDS011;4820;50.870;4.702;2024-03-02T05:56:24;2.17;;;1.00;;
9563;SDS011;4820;50.870;4.702;2024-03-02T05:58:51;2.83;;;1.02;;
9563;SDS011;4820;50.870;4.702;2024-03-02T06:01:35;3.20;;;1.00;;
9563;SDS011;4820;50.870;4.702;2024-03-02T06:04:00;3.00;;;1.13;;
9563;SDS011;4820;50.870;4.702;2024-03-02T06:06:26;5.72;;;1.00;;
9563;SDS011;4820;50.870;4.702;2024-03-02T06:08:52;2.45;;;1.08;;
9563;SDS011;4820;50.870;4.702;2024-03-02T06:11:21;1.33;;;0.80;;
9563;SDS011;4820;50.870;4.702;2024-03-02T06:13:46;3.30;;;1.20;;
9563;SDS011;4820;50.870;4.702;2024-03-02T06:16:12;2.33;;;0.90;;
9563;SDS011;4820;50.870;4.702;2024-03-02T06:18:38;2.92;;;1.00;;
9563;SDS011;4820;50.870;4.702;2024-03-02T06:21:04;2.42;;;1.20;;
9563;SDS011;4820;50.870;4.702;2024-03-02T06:23:30;3.95;;;1.33;;
9563;SDS011;4820;50.870;4.702;2024-03-02T06:25:55;2.28;;;1.08;;
9563;SDS011;4820;50.870;4.702;2024-03-02T06:28:21;3.53;;;1.10;;
9563;SDS011;4820;50.870;4.702;2024-03-02T06:30:47;3.22;;;1.05;;
9563;SDS011;4820;50.870;4.702;2024-03-02T06:33:12;1.85;;;1.05;;
9563;SDS011;4820;50.870;4.702;2024-03-02T06:35:38;2.97;;;1.17;;
9563;SDS011;4820;50.870;4.702;2024-03-02T06:38:04;3.55;;;1.20;;
9563;SDS011;4820;50.870;4.702;2024-03-02T06:40:29;3.08;;;1.00;;
9563;SDS011;4820;50.870;4.702;2024-03-02T06:42:55;2.17;;;1.17;;
9563;SDS011;4820;50.870;4.702;2024-03-02T06:45:21;2.95;;;1.20;;
9563;SDS011;4820;50.870;4.702;2024-03-02T06:47:46;3.10;;;1.13;;
9563;SDS011;4820;50.870;4.702;2024-03-02T06:50:12;4.10;;;1.30;;
9563;SDS011;4820;50.870;4.702;2024-03-02T06:52:38;3.70;;;1.85;;
9563;SDS011;4820;50.870;4.702;2024-03-02T06:55:03;4.55;;;1.20;;
9563;SDS011;4820;50.870;4.702;2024-03-02T06:57:30;2.45;;;1.23;;
9563;SDS011;4820;50.870;4.702;2024-03-02T06:59:55;2.83;;;0.98;;
9563;SDS011;4820;50.870;4.702;2024-03-02T07:02:24;3.97;;;1.25;;
9563;SDS011;4820;50.870;4.702;2024-03-02T07:04:52;3.22;;;1.10;;
9563;SDS011;4820;50.870;4.702;2024-03-02T07:07:19;4.13;;;1.30;;
9563;SDS011;4820;50.870;4.702;2024-03-02T07:09:45;3.33;;;1.38;;
9563;SDS011;4820;50.870;4.702;2024-03-02T07:12:11;3.25;;;1.50;;
9563;SDS011;4820;50.870;4.702;2024-03-02T07:14:37;2.17;;;1.00;;
9563;SDS011;4820;50.870;4.702;2024-03-02T07:17:21;3.92;;;1.13;;
9563;SDS011;4820;50.870;4.702;2024-03-02T07:19:46;2.97;;;1.13;;
9563;SDS011;4820;50.870;4.702;2024-03-02T07:22:12;1.95;;;1.05;;
9563;SDS011;4820;50.870;4.702;2024-03-02T07:24:45;2.30;;;1.17;;
9563;SDS011;4820;50.870;4.702;2024-03-02T07:27:11;2.15;;;1.00;;
9563;SDS011;4820;50.870;4.702;2024-03-02T07:29:37;3.45;;;1.27;;
9563;SDS011;4820;50.870;4.702;2024-03-02T07:32:04;3.97;;;1.20;;
9563;SDS011;4820;50.870;4.702;2024-03-02T07:34:30;3.80;;;1.20;;
9563;SDS011;4820;50.870;4.702;2024-03-02T07:36:56;3.72;;;1.20;;
9563;SDS011;4820;50.870;4.702;2024-03-02T07:39:22;2.88;;;1.10;;
9563;SDS011;4820;50.870;4.702;2024-03-02T07:41:48;3.10;;;1.08;;
9563;SDS011;4820;50.870;4.702;2024-03-02T07:44:14;2.67;;;1.27;;
9563;SDS011;4820;50.870;4.702;2024-03-02T07:46:43;2.10;;;1.13;;
9563;SDS011;4820;50.870;4.702;2024-03-02T07:49:10;2.83;;;0.90;;
9563;SDS011;4820;50.870;4.702;2024-03-02T07:51:36;1.83;;;1.17;;
9563;SDS011;4820;50.870;4.702;2024-03-02T07:54:02;3.00;;;1.20;;
9563;SDS011;4820;50.870;4.702;2024-03-02T07:56:27;1.77;;;1.20;;
9563;SDS011;4820;50.870;4.702;2024-03-02T07:58:53;2.92;;;1.45;;
9563;SDS011;4820;50.870;4.702;2024-03-02T08:01:19;2.00;;;1.10;;
9563;SDS011;4820;50.870;4.702;2024-03-02T08:03:45;2.97;;;1.10;;
9563;SDS011;4820;50.870;4.702;2024-03-02T08:06:15;1.60;;;1.00;;
9563;SDS011;4820;50.870;4.702;2024-03-02T08:08:46;2.80;;;1.38;;
9563;SDS011;4820;50.870;4.702;2024-03-02T08:11:12;2.90;;;1.02;;
9563;SDS011;4820;50.870;4.702;2024-03-02T08:13:38;2.88;;;1.40;;
9563;SDS011;4820;50.870;4.702;2024-03-02T08:16:04;2.88;;;1.10;;
9563;SDS011;4820;50.870;4.702;2024-03-02T08:18:32;4.32;;;1.30;;
9563;SDS011;4820;50.870;4.702;2024-03-02T08:20:59;4.47;;;1.38;;
9563;SDS011;4820;50.870;4.702;2024-03-02T08:23:25;3.63;;;1.40;;
9563;SDS011;4820;50.870;4.702;2024-03-02T08:25:50;2.00;;;1.10;;
9563;SDS011;4820;50.870;4.702;2024-03-02T08:28:17;3.85;;;1.30;;
9563;SDS011;4820;50.870;4.702;2024-03-02T08:30:42;4.35;;;1.60;;
9563;SDS011;4820;50.870;4.702;2024-03-02T08:33:08;3.70;;;1.20;;
9563;SDS011;4820;50.870;4.702;2024-03-02T08:35:34;4.38;;;1.70;;
9563;SDS011;4820;50.870;4.702;2024-03-02T08:38:04;4.70;;;1.70;;
9563;SDS011;4820;50.870;4.702;2024-03-02T08:40:30;4.57;;;2.13;;
9563;SDS011;4820;50.870;4.702;2024-03-02T08:42:56;4.78;;;1.45;;
9563;SDS011;4820;50.870;4.702;2024-03-02T08:45:21;5.35;;;1.52;;
9563;SDS011;4820;50.870;4.702;2024-03-02T08:47:47;3.72;;;1.77;;
9563;SDS011;4820;50.870;4.702;2024-03-02T08:50:13;2.55;;;1.30;;
9563;SDS011;4820;50.870;4.702;2024-03-02T08:52:39;3.00;;;1.15;;
9563;SDS011;4820;50.870;4.702;2024-03-02T08:55:05;3.40;;;1.40;;
9563;SDS011;4820;50.870;4.702;2024-03-02T08:57:32;4.25;;;1.30;;
9563;SDS011;4820;50.870;4.702;2024-03-02T08:59:58;5.63;;;1.75;;
9563;SDS011;4820;50.870;4.702;2024-03-02T09:02:25;6.35;;;1.40;;
9563;SDS011;4820;50.870;4.702;2024-03-02T09:04:50;3.92;;;1.60;;
9563;SDS011;4820;50.870;4.702;2024-03-02T09:07:16;3.67;;;1.60;;
9563;SDS011;4820;50.870;4.702;2024-03-02T09:09:42;2.10;;;1.10;;
9563;SDS011;4820;50.870;4.702;2024-03-02T09:12:09;4.40;;;1.42;;
9563;SDS011;4820;50.870;4.702;2024-03-02T09:14:36;4.75;;;1.60;;
9563;SDS011;4820;50.870;4.702;2024-03-02T09:17:02;2.90;;;1.10;;
9563;SDS011;4820;50.870;4.702;2024-03-02T09:19:28;3.90;;;1.40;;
9563;SDS011;4820;50.870;4.702;2024-03-02T09:21:54;3.22;;;1.38;;
9563;SDS011;4820;50.870;4.702;2024-03-02T09:24:21;5.25;;;1.50;;
9563;SDS011;4820;50.870;4.702;2024-03-02T09:26:47;5.10;;;1.55;;
9563;SDS011;4820;50.870;4.702;2024-03-02T09:29:13;2.42;;;1.10;;
9563;SDS011;4820;50.870;4.702;2024-03-02T09:31:39;4.95;;;1.27;;
9563;SDS011;4820;50.870;4.702;2024-03-02T09:34:06;4.45;;;1.83;;
9563;SDS011;4820;50.870;4.702;2024-03-02T09:36:33;3.50;;;1.20;;
9563;SDS011;4820;50.870;4.702;2024-03-02T09:39:00;3.70;;;1.30;;
9563;SDS011;4820;50.870;4.702;2024-03-02T09:41:25;4.05;;;1.35;;
9563;SDS011;4820;50.870;4.702;2024-03-02T09:43:51;6.32;;;1.42;;
9563;SDS011;4820;50.870;4.702;2024-03-02T09:46:18;2.75;;;1.40;;
9563;SDS011;4820;50.870;4.702;2024-03-02T09:48:44;2.85;;;1.30;;
9563;SDS011;4820;50.870;4.702;2024-03-02T09:51:12;4.53;;;1.45;;
9563;SDS011;4820;50.870;4.702;2024-03-02T09:53:41;3.65;;;1.48;;
9563;SDS011;4820;50.870;4.702;2024-03-02T09:56:07;3.50;;;1.30;;
9563;SDS011;4820;50.870;4.702;2024-03-02T09:58:34;4.10;;;1.40;;
9563;SDS011;4820;50.870;4.702;2024-03-02T10:01:05;3.47;;;1.35;;
9563;SDS011;4820;50.870;4.702;2024-03-02T10:03:31;3.47;;;1.35;;
9563;SDS011;4820;50.870;4.702;2024-03-02T10:06:18;4.22;;;1.50;;
9563;SDS011;4820;50.870;4.702;2024-03-02T10:08:46;4.88;;;1.60;;
9563;SDS011;4820;50.870;4.702;2024-03-02T10:11:31;4.80;;;1.48;;
9563;SDS011;4820;50.870;4.702;2024-03-02T10:14:08;3.45;;;1.67;;
9563;SDS011;4820;50.870;4.702;2024-03-02T10:16:39;4.40;;;1.60;;
9563;SDS011;4820;50.870;4.702;2024-03-02T10:19:16;4.85;;;1.40;;
9563;SDS011;4820;50.870;4.702;2024-03-02T10:21:43;6.43;;;1.88;;
9563;SDS011;4820;50.870;4.702;2024-03-02T10:24:10;6.53;;;1.95;;
9563;SDS011;4820;50.870;4.702;2024-03-02T10:26:36;3.47;;;1.23;;
9563;SDS011;4820;50.870;4.702;2024-03-02T10:29:02;4.07;;;1.40;;
9563;SDS011;4820;50.870;4.702;2024-03-02T10:31:28;2.45;;;1.10;;
9563;SDS011;4820;50.870;4.702;2024-03-02T10:33:57;3.38;;;1.50;;
9563;SDS011;4820;50.870;4.702;2024-03-02T10:36:24;4.88;;;1.30;;
9563;SDS011;4820;50.870;4.702;2024-03-02T10:38:51;2.67;;;1.30;;
9563;SDS011;4820;50.870;4.702;2024-03-02T10:41:22;4.88;;;1.42;;
9563;SDS011;4820;50.870;4.702;2024-03-02T10:43:49;5.20;;;1.27;;
9563;SDS011;4820;50.870;4.702;2024-03-02T10:46:19;4.07;;;1.50;;
9563;SDS011;4820;50.870;4.702;2024-03-02T10:48:45;4.47;;;1.33;;
9563;SDS011;4820;50.870;4.702;2024-03-02T10:51:12;4.10;;;1.40;;
9563;SDS011;4820;50.870;4.702;2024-03-02T10:53:37;2.55;;;1.10;;
9563;SDS011;4820;50.870;4.702;2024-03-02T10:56:03;1.95;;;0.98;;
9563;SDS011;4820;50.870;4.702;2024-03-02T10:58:32;4.03;;;1.50;;
9563;SDS011;4820;50.870;4.702;2024-03-02T11:01:05;1.73;;;1.30;;
9563;SDS011;4820;50.870;4.702;2024-03-02T11:03:33;5.22;;;1.65;;
9563;SDS011;4820;50.870;4.702;2024-03-02T11:06:02;4.35;;;1.40;;
9563;SDS011;4820;50.870;4.702;2024-03-02T11:08:31;4.03;;;1.50;;
9563;SDS011;4820;50.870;4.702;2024-03-02T11:11:06;3.28;;;1.45;;
9563;SDS011;4820;50.870;4.702;2024-03-02T11:13:34;2.17;;;1.17;;
9563;SDS011;4820;50.870;4.702;2024-03-02T11:16:04;4.03;;;1.48;;
9563;SDS011;4820;50.870;4.702;2024-03-02T11:18:33;4.13;;;1.15;;
9563;SDS011;4820;50.870;4.702;2024-03-02T11:20:59;2.70;;;1.17;;
9563;SDS011;4820;50.870;4.702;2024-03-02T11:23:33;2.80;;;1.50;;
9563;SDS011;4820;50.870;4.702;2024-03-02T11:28:45;2.58;;;1.30;;
9563;SDS011;4820;50.870;4.702;2024-03-02T11:31:11;3.80;;;1.55;;
9563;SDS011;4820;50.870;4.702;2024-03-02T11:33:37;4.97;;;1.40;;
9563;SDS011;4820;50.870;4.702;2024-03-02T11:36:05;5.72;;;1.35;;
9563;SDS011;4820;50.870;4.702;2024-03-02T11:38:32;4.75;;;1.50;;
9563;SDS011;4820;50.870;4.702;2024-03-02T11:41:03;2.17;;;1.23;;
9563;SDS011;4820;50.870;4.702;2024-03-02T11:43:37;4.72;;;1.40;;
9563;SDS011;4820;50.870;4.702;2024-03-02T11:46:04;2.60;;;1.30;;
9563;SDS011;4820;50.870;4.702;2024-03-02T11:48:34;5.55;;;1.38;;
9563;SDS011;4820;50.870;4.702;2024-03-02T11:51:02;2.97;;;1.30;;
9563;SDS011;4820;50.870;4.702;2024-03-02T11:53:28;4.53;;;1.58;;
9563;SDS011;4820;50.870;4.702;2024-03-02T11:55:59;2.47;;;1.00;;
9563;SDS011;4820;50.870;4.702;2024-03-02T11:58:27;3.45;;;1.55;;
9563;SDS011;4820;50.870;4.702;2024-03-02T12:00:53;3.85;;;1.20;;
9563;SDS011;4820;50.870;4.702;2024-03-02T12:03:24;2.53;;;1.38;;
9563;SDS011;4820;50.870;4.702;2024-03-02T12:05:52;2.55;;;1.17;;
9563;SDS011;4820;50.870;4.702;2024-03-02T12:08:19;3.78;;;1.30;;
9563;SDS011;4820;50.870;4.702;2024-03-02T12:11:00;4.32;;;1.33;;
9563;SDS011;4820;50.870;4.702;2024-03-02T12:13:27;4.00;;;1.45;;
9563;SDS011;4820;50.870;4.702;2024-03-02T12:15:53;3.92;;;1.50;;
9563;SDS011;4820;50.870;4.702;2024-03-02T12:18:21;4.70;;;1.50;;
9563;SDS011;4820;50.870;4.702;2024-03-02T12:20:48;4.72;;;1.55;;
9563;SDS011;4820;50.870;4.702;2024-03-02T12:23:17;2.40;;;1.40;;
9563;SDS011;4820;50.870;4.702;2024-03-02T12:25:43;3.05;;;1.48;;
9563;SDS011;4820;50.870;4.702;2024-03-02T12:28:09;4.68;;;1.65;;
9563;SDS011;4820;50.870;4.702;2024-03-02T12:30:35;5.10;;;1.60;;
9563;SDS011;4820;50.870;4.702;2024-03-02T12:33:01;7.28;;;1.63;;
9563;SDS011;4820;50.870;4.702;2024-03-02T12:35:27;2.88;;;1.63;;
9563;SDS011;4820;50.870;4.702;2024-03-02T12:37:53;3.28;;;1.60;;
9563;SDS011;4820;50.870;4.702;2024-03-02T12:40:19;3.28;;;1.30;;
9563;SDS011;4820;50.870;4.702;2024-03-02T12:42:48;3.67;;;1.05;;
9563;SDS011;4820;50.870;4.702;2024-03-02T12:45:14;2.83;;;1.30;;
9563;SDS011;4820;50.870;4.702;2024-03-02T12:47:41;3.78;;;1.48;;
9563;SDS011;4820;50.870;4.702;2024-03-02T12:50:08;3.78;;;1.27;;
9563;SDS011;4820;50.870;4.702;2024-03-02T12:52:35;3.45;;;1.10;;
9563;SDS011;4820;50.870;4.702;2024-03-02T12:55:01;3.92;;;1.45;;
9563;SDS011;4820;50.870;4.702;2024-03-02T12:57:31;4.63;;;1.40;;
9563;SDS011;4820;50.870;4.702;2024-03-02T13:00:02;3.72;;;1.08;;
9563;SDS011;4820;50.870;4.702;2024-03-02T13:02:35;3.83;;;1.42;;
9563;SDS011;4820;50.870;4.702;2024-03-02T13:05:02;2.97;;;1.13;;
9563;SDS011;4820;50.870;4.702;2024-03-02T13:07:28;2.72;;;1.20;;
9563;SDS011;4820;50.870;4.702;2024-03-02T13:09:55;4.38;;;1.48;;
9563;SDS011;4820;50.870;4.702;2024-03-02T13:12:21;4.13;;;1.52;;
9563;SDS011;4820;50.870;4.702;2024-03-02T13:14:48;3.13;;;1.20;;
9563;SDS011;4820;50.870;4.702;2024-03-02T13:17:17;2.42;;;1.20;;
9563;SDS011;4820;50.870;4.702;2024-03-02T13:19:50;2.80;;;1.40;;
9563;SDS011;4820;50.870;4.702;2024-03-02T13:22:20;2.08;;;1.00;;
9563;SDS011;4820;50.870;4.702;2024-03-02T13:24:46;3.72;;;1.20;;
9563;SDS011;4820;50.870;4.702;2024-03-02T13:27:12;2.67;;;1.08;;
9563;SDS011;4820;50.870;4.702;2024-03-02T13:29:38;4.22;;;1.30;;
9563;SDS011;4820;50.870;4.702;2024-03-02T13:32:04;2.22;;;1.10;;
9563;SDS011;4820;50.870;4.702;2024-03-02T13:34:30;4.55;;;1.20;;
9563;SDS011;4820;50.870;4.702;2024-03-02T13:36:56;1.75;;;0.93;;
9563;SDS011;4820;50.870;4.702;2024-03-02T13:39:21;2.00;;;0.90;;
9563;SDS011;4820;50.870;4.702;2024-03-02T13:41:48;1.83;;;0.88;;
9563;SDS011;4820;50.870;4.702;2024-03-02T13:44:27;2.78;;;1.10;;
9563;SDS011;4820;50.870;4.702;2024-03-02T13:46:53;2.92;;;1.08;;
9563;SDS011;4820;50.870;4.702;2024-03-02T13:49:19;2.78;;;1.02;;
9563;SDS011;4820;50.870;4.702;2024-03-02T13:51:44;2.25;;;1.05;;
9563;SDS011;4820;50.870;4.702;2024-03-02T13:54:10;1.77;;;1.15;;
9563;SDS011;4820;50.870;4.702;2024-03-02T13:56:36;2.05;;;1.30;;
9563;SDS011;4820;50.870;4.702;2024-03-02T13:59:04;1.50;;;1.10;;
9563;SDS011;4820;50.870;4.702;2024-03-02T14:01:31;2.35;;;1.10;;
9563;SDS011;4820;50.870;4.702;2024-03-02T14:03:57;2.03;;;1.10;;
9563;SDS011;4820;50.870;4.702;2024-03-02T14:06:23;2.75;;;1.10;;
9563;SDS011;4820;50.870;4.702;2024-03-02T14:08:51;2.90;;;1.05;;
9563;SDS011;4820;50.870;4.702;2024-03-02T14:11:18;1.95;;;0.93;;
9563;SDS011;4820;50.870;4.702;2024-03-02T14:13:44;3.10;;;1.10;;
9563;SDS011;4820;50.870;4.702;2024-03-02T14:16:14;2.38;;;1.15;;
9563;SDS011;4820;50.870;4.702;2024-03-02T14:18:40;2.22;;;1.02;;
9563;SDS011;4820;50.870;4.702;2024-03-02T14:21:07;2.10;;;1.17;;
9563;SDS011;4820;50.870;4.702;2024-03-02T14:23:33;1.45;;;1.05;;
9563;SDS011;4820;50.870;4.702;2024-03-02T14:25:58;2.80;;;1.10;;
9563;SDS011;4820;50.870;4.702;2024-03-02T14:28:24;1.92;;;1.00;;
9563;SDS011;4820;50.870;4.702;2024-03-02T14:30:50;4.38;;;1.20;;
9563;SDS011;4820;50.870;4.702;2024-03-02T14:33:16;1.98;;;1.20;;
9563;SDS011;4820;50.870;4.702;2024-03-02T14:35:42;1.38;;;1.13;;
9563;SDS011;4820;50.870;4.702;2024-03-02T14:38:07;1.83;;;1.15;;
9563;SDS011;4820;50.870;4.702;2024-03-02T14:40:33;3.88;;;1.20;;
9563;SDS011;4820;50.870;4.702;2024-03-02T14:42:59;1.38;;;0.93;;
9563;SDS011;4820;50.870;4.702;2024-03-02T14:45:24;2.70;;;1.20;;
9563;SDS011;4820;50.870;4.702;2024-03-02T14:47:50;2.53;;;1.30;;
9563;SDS011;4820;50.870;4.702;2024-03-02T14:50:17;2.05;;;1.15;;
9563;SDS011;4820;50.870;4.702;2024-03-02T14:52:43;2.38;;;1.13;;
9563;SDS011;4820;50.870;4.702;2024-03-02T14:55:10;2.05;;;1.10;;
9563;SDS011;4820;50.870;4.702;2024-03-02T14:57:36;1.90;;;1.10;;
9563;SDS011;4820;50.870;4.702;2024-03-02T15:00:02;1.60;;;0.88;;
9563;SDS011;4820;50.870;4.702;2024-03-02T15:02:28;2.10;;;1.15;;
9563;SDS011;4820;50.870;4.702;2024-03-02T15:04:54;1.70;;;0.93;;
9563;SDS011;4820;50.870;4.702;2024-03-02T15:07:20;3.75;;;1.30;;
9563;SDS011;4820;50.870;4.702;2024-03-02T15:09:46;2.13;;;1.25;;
9563;SDS011;4820;50.870;4.702;2024-03-02T15:12:11;1.80;;;1.20;;
9563;SDS011;4820;50.870;4.702;2024-03-02T15:14:40;2.30;;;1.00;;
9563;SDS011;4820;50.870;4.702;2024-03-02T15:17:11;1.15;;;0.90;;
9563;SDS011;4820;50.870;4.702;2024-03-02T15:19:41;2.25;;;1.10;;
9563;SDS011;4820;50.870;4.702;2024-03-02T15:22:07;2.40;;;1.20;;
9563;SDS011;4820;50.870;4.702;2024-03-02T15:24:33;1.88;;;1.20;;